SU6597 / VP-BIT 7700 Squawk Report (15th of September, 2020)

Aircraft A319 Reg No. VP-BIT Age 18 years old
Model A319 Jet engines 2 First flight 23-05-02
Registered 03-08-11 Rollout 05-02 Delivered 26-06-02
Construction No. 1761 Line No. N/A Series 112
ADSHEX 424245 Airline name Rossiya Owner VTB Leasing (Europe) Ltd
Airfield based St. Petersburg-Pulkovo~St. Petersburg~RA First tracked N/A

Flight history for VP-BIT

Route Flight No Date Playback
Pulkovo (LED) - Talagi (ARH) SU6307 2020-10-20 16:55:00
Vnukovo (VKO) - Pulkovo (LED) SU6018 2020-10-20 08:40:00
Pulkovo (LED) - Vnukovo (VKO) SU6017 2020-10-20 07:34:00
Ufa (UFA) - Pulkovo (LED) SU6412 2020-10-20 03:29:00
Pulkovo (LED) - Ufa (UFA) SU6411 2020-10-20 01:20:00
Simferopol Intl (SIP) - Pulkovo (LED) SU6892 2020-10-19 11:21:00
???? N/A 2020-10-19 08:47:00
Kazan (KZN) - Pulkovo (LED) SU6596 2020-10-19 02:32:00
Pulkovo (LED) - Kazan (KZN) SU6595 2020-10-18 22:29:00
Vnukovo (VKO) - Pulkovo (LED) SU6012 2020-10-18 16:27:00
Pulkovo (LED) - Vnukovo (VKO) SU6011 2020-10-18 15:23:00
Murmansk (MMK) - Pulkovo (LED) SU6342 2020-10-18 10:39:00
Pulkovo (LED) - Murmansk (MMK) SU6341 2020-10-18 09:05:00
Omsk (OMS) - Pulkovo (LED) SU6472 2020-10-18 04:10:00
Pulkovo (LED) - Omsk (OMS) SU6471 2020-10-18 00:33:00
Vnukovo (VKO) - Pulkovo (LED) SU6018 2020-10-17 09:30:00
Pulkovo (LED) - Vnukovo (VKO) SU6017 2020-10-17 07:15:00
Surgut (SGC) - Pulkovo (LED) SU6442 2020-10-17 03:07:00
Pulkovo (LED) - Surgut (SGC) SU6441 2020-10-17 00:56:00
Kazan (KZN) - Pulkovo (LED) SU6598 2020-10-16 18:01:00
Time Lat Lon Altitude Heading Speed Vertical Rate
2020-09-15 14:46:17 GMT 55.499207 49.145107 4,425 100 308 -2240
2020-09-15 14:46:09 GMT 55.501205 49.126308 4,700 100 308 -2368
2020-09-15 14:46:03 GMT 55.503071 49.108803 5,000 100 308 -2304
2020-09-15 14:45:11 GMT 55.516663 48.979630 6,050 100 314 -512
2020-09-15 14:45:00 GMT 55.519409 48.953747 6,150 100 314 -512
2020-09-15 14:44:51 GMT 55.522064 48.928642 6,225 100 316 -512
2020-09-15 14:44:40 GMT 55.524811 48.901775 6,325 100 315 -512
2020-09-15 14:44:30 GMT 55.527370 48.876369 6,400 100 314 -512
2020-09-15 14:44:19 GMT 55.530304 48.847713 6,500 100 315 -512
2020-09-15 14:44:08 GMT 55.532913 48.821911 6,575 100 316 -448
2020-09-15 14:43:58 GMT 55.535431 48.797440 6,650 100 317 -448
2020-09-15 14:43:49 GMT 55.537949 48.772221 6,750 99 317 -512
2020-09-15 14:43:39 GMT 55.540638 48.745308 6,825 100 318 -512
2020-09-15 14:43:28 GMT 55.543259 48.719372 6,925 100 320 -512
2020-09-15 14:43:17 GMT 55.546005 48.692406 7,000 100 319 -512
2020-09-15 14:43:07 GMT 55.548615 48.666771 7,100 100 319 -1024
2020-09-15 14:42:57 GMT 55.551392 48.640511 7,350 100 320 -1728
2020-09-15 14:42:47 GMT 55.554199 48.613419 7,700 100 320 -2176
2020-09-15 14:42:36 GMT 55.556900 48.586620 8,075 100 322 -2112
2020-09-15 14:42:27 GMT 55.559536 48.560860 8,400 100 324 -1920
2020-09-15 14:42:16 GMT 55.562237 48.533394 8,725 99 326 -1664
2020-09-15 14:42:05 GMT 55.564819 48.506138 9,025 99 329 -1984
2020-09-15 14:41:55 GMT 55.567429 48.479836 9,350 100 332 -2048
2020-09-15 14:41:46 GMT 55.570244 48.452023 9,750 100 332 -2176
2020-09-15 14:41:35 GMT 55.573059 48.424072 10,100 100 333 -2112
2020-09-15 14:41:24 GMT 55.575851 48.396774 10,450 100 335 -1984
2020-09-15 14:41:15 GMT 55.578625 48.369629 10,800 99 336 -2496
2020-09-15 14:41:04 GMT 55.581230 48.341904 11,300 97 332 -2880
2020-09-15 14:40:54 GMT 55.582626 48.314461 11,725 91 328 -1984
2020-09-15 14:40:43 GMT 55.582352 48.286991 12,050 87 327 -1728
2020-09-15 14:40:34 GMT 55.581528 48.258862 12,300 86 331 -1280
2020-09-15 14:40:23 GMT 55.580719 48.231609 12,575 87 333 -2048
2020-09-15 14:40:12 GMT 55.579880 48.202858 12,950 87 333 -2048
2020-09-15 14:40:03 GMT 55.579102 48.175880 13,275 87 334 -1920
2020-09-15 14:39:52 GMT 55.578278 48.147251 13,600 87 336 -1664
2020-09-15 14:39:42 GMT 55.577412 48.119347 13,850 86 339 -1600
2020-09-15 14:39:31 GMT 55.576584 48.090736 14,200 87 339 -2432
2020-09-15 14:39:22 GMT 55.575806 48.062939 14,625 87 336 -2752
2020-09-15 14:39:11 GMT 55.574947 48.034027 15,150 87 330 -3072
2020-09-15 14:39:01 GMT 55.574154 48.007336 15,675 86 323 -3136
2020-09-15 14:38:51 GMT 55.573334 47.980125 16,175 86 318 -2176
2020-09-15 14:38:40 GMT 55.572525 47.953262 16,450 86 320 -1216
2020-09-15 14:38:30 GMT 55.571686 47.926941 16,625 86 325 -1216
2020-09-15 14:38:19 GMT 55.570850 47.899445 16,875 87 327 -1536
2020-09-15 14:38:10 GMT 55.570011 47.871292 17,175 86 329 -1856
2020-09-15 14:37:59 GMT 55.569168 47.844627 17,450 86 329 -1664
2020-09-15 14:37:49 GMT 55.568291 47.816875 17,750 86 330 -1728
2020-09-15 14:37:38 GMT 55.567337 47.789028 18,050 86 331 -1856
2020-09-15 14:37:28 GMT 55.566467 47.760399 18,375 86 332 -1728
2020-09-15 14:37:18 GMT 55.565636 47.733707 18,625 86 334 -1408
2020-09-15 14:37:08 GMT 55.564796 47.705811 18,850 86 338 -1280
2020-09-15 14:36:58 GMT 55.563866 47.676804 19,075 86 342 -1344
2020-09-15 14:36:47 GMT 55.562843 47.647705 19,325 86 345 -1600
2020-09-15 14:36:37 GMT 55.561817 47.619038 19,650 86 345 -2112
2020-09-15 14:36:26 GMT 55.560745 47.590279 20,000 86 345 -1856
2020-09-15 14:36:16 GMT 55.559692 47.560730 20,300 86 347 -1600
2020-09-15 14:36:06 GMT 55.558731 47.532349 20,600 86 350 -1920
2020-09-15 14:35:56 GMT 55.557770 47.503338 20,900 86 351 -1664
2020-09-15 14:35:46 GMT 55.556763 47.473423 21,175 86 354 -1600
2020-09-15 14:35:35 GMT 55.555664 47.442795 21,475 86 357 -1664
2020-09-15 14:35:24 GMT 55.554649 47.413471 21,750 86 359 -1600
2020-09-15 14:35:14 GMT 55.553604 47.383118 22,025 86 361 -1728
2020-09-15 14:35:04 GMT 55.552555 47.353222 22,325 86 363 -1728
2020-09-15 14:34:54 GMT 55.551437 47.323177 22,600 86 366 -1664
2020-09-15 14:34:43 GMT 55.550274 47.292110 22,900 86 369 -1728
2020-09-15 14:34:33 GMT 55.549065 47.258892 23,225 86 372 -1792
2020-09-15 14:34:23 GMT 55.548019 47.228642 23,500 86 375 -1792
2020-09-15 14:34:12 GMT 55.546875 47.196236 23,825 86 378 -1792
2020-09-15 14:34:02 GMT 55.545731 47.166138 24,100 86 381 -1792
2020-09-15 14:33:52 GMT 55.544548 47.134869 24,425 86 385 -1792
2020-09-15 14:33:42 GMT 55.543396 47.101967 24,725 86 388 -1792
2020-09-15 14:33:31 GMT 55.542160 47.069340 25,050 86 392 -1856
2020-09-15 14:33:22 GMT 55.540924 47.036301 25,375 86 396 -1856
2020-09-15 14:33:11 GMT 55.539688 47.003342 25,675 86 399 -1856
2020-09-15 14:33:01 GMT 55.538357 46.969643 26,000 86 402 -1792
2020-09-15 14:32:50 GMT 55.536987 46.934261 26,325 85 407 -1856
2020-09-15 14:32:41 GMT 55.535656 46.901321 26,650 85 410 -1920
2020-09-15 14:32:29 GMT 55.534241 46.866428 26,975 85 413 -1984
2020-09-15 14:32:19 GMT 55.532818 46.832314 27,300 86 416 -1920
2020-09-15 14:32:10 GMT 55.531403 46.797264 27,650 85 419 -1984
2020-09-15 14:31:59 GMT 55.530029 46.763390 27,975 85 423 -1920
2020-09-15 14:31:48 GMT 55.528519 46.727016 28,325 85 426 -2048
2020-09-15 14:31:38 GMT 55.527145 46.691895 28,650 85 430 -1984
2020-09-15 14:31:28 GMT 55.525696 46.655674 29,000 85 433 -2048
2020-09-15 14:31:18 GMT 55.524204 46.619797 29,375 85 436 -2112
2020-09-15 14:31:07 GMT 55.522575 46.580399 29,725 85 439 -1856
2020-09-15 14:30:57 GMT 55.520901 46.541779 30,050 85 442 -2048
2020-09-15 14:30:47 GMT 55.519455 46.508732 30,425 86 444 -2816
2020-09-15 14:30:37 GMT 55.518539 46.472836 30,950 88 443 -3328
2020-09-15 14:30:26 GMT 55.518433 46.434917 31,375 90 443 -1088
2020-09-15 14:30:16 GMT 55.518990 46.398785 31,550 92 445 -896
2020-09-15 14:30:06 GMT 55.520279 46.361221 31,700 93 449 -1152
2020-09-15 14:29:55 GMT 55.521782 46.322651 31,950 93 452 -1664
2020-09-15 14:29:45 GMT 55.523483 46.281239 32,275 94 456 -1728
2020-09-15 14:29:35 GMT 55.524811 46.247864 32,525 93 459 -1536
2020-09-15 14:29:25 GMT 55.526207 46.208923 32,825 93 461 -1728
2020-09-15 14:29:14 GMT 55.527557 46.169628 33,125 93 463 -1792
2020-09-15 14:29:04 GMT 55.529068 46.129593 33,450 93 467 -1664
2020-09-15 14:28:54 GMT 55.530441 46.092224 33,700 93 471 -1600
2020-09-15 14:28:43 GMT 55.531998 46.052357 34,025 93 473 -1984
2020-09-15 14:28:34 GMT 55.533463 46.013157 34,425 93 473 -2432
2020-09-15 14:28:23 GMT 55.534866 45.972549 34,775 93 473 -2304
2020-09-15 14:28:13 GMT 55.536121 45.934525 35,225 93 473 -2496
2020-09-15 14:28:02 GMT 55.537537 45.893555 35,675 93 473 -2432
2020-09-15 14:27:52 GMT 55.539009 45.853760 36,075 93 474 -2496
2020-09-15 14:27:42 GMT 55.540421 45.815403 36,375 93 475 -1984
2020-09-15 14:27:31 GMT 55.541931 45.774452 36,650 93 476 -1280
2020-09-15 14:27:22 GMT 55.543289 45.735912 36,825 93 478 -1024
2020-09-15 14:27:11 GMT 55.544640 45.695057 36,975 93 479 -448
2020-09-15 14:27:01 GMT 55.545959 45.655602 37,000 93 478 64
2020-09-15 14:26:53 GMT 55.547108 45.622704 37,000 93 478 0
2020-09-15 14:26:50 GMT 55.547386 45.614548 37,000 93 478 64
2020-09-15 14:26:40 GMT 55.548706 45.574699 36,975 93 477 64
2020-09-15 14:26:29 GMT 55.549942 45.534752 36,975 93 477 128
2020-09-15 14:26:20 GMT 55.551159 45.496101 36,950 93 477 64
2020-09-15 14:26:10 GMT 55.552460 45.455185 36,950 93 476 0
2020-09-15 14:26:02 GMT 55.553421 45.424221 36,975 93 476 -64
2020-09-15 14:25:59 GMT 55.553696 45.415318 36,975 93 476 -64
2020-09-15 14:25:49 GMT 55.554974 45.376453 37,000 93 476 -128
2020-09-15 14:25:41 GMT 55.555954 45.345470 37,000 93 475 -128
2020-09-15 14:25:38 GMT 55.556259 45.335583 37,000 93 475 -128
2020-09-15 14:25:28 GMT 55.557541 45.295883 37,000 93 474 0
2020-09-15 14:25:21 GMT 55.558701 45.257835 37,000 93 474 64
2020-09-15 14:25:10 GMT 55.560013 45.214817 36,975 93 475 64
2020-09-15 14:24:58 GMT 55.561119 45.176723 36,975 92 475 0
2020-09-15 14:24:47 GMT 55.562237 45.137672 36,975 92 475 0
2020-09-15 14:24:37 GMT 55.563309 45.098274 36,975 92 475 -64
2020-09-15 14:24:30 GMT 55.564144 45.070126 37,000 92 475 -64
2020-09-15 14:24:26 GMT 55.564659 45.051929 37,000 92 475 -64
2020-09-15 14:24:19 GMT 55.565277 45.030045 37,000 92 475 0
2020-09-15 14:24:16 GMT 55.565681 45.016739 37,000 92 475 0
2020-09-15 14:24:06 GMT 55.566708 44.979656 37,000 92 475 0
2020-09-15 14:23:58 GMT 55.567520 44.950146 37,000 92 475 64
2020-09-15 14:23:55 GMT 55.567825 44.939487 37,000 92 475 64
2020-09-15 14:23:50 GMT 55.568474 44.917004 36,975 92 476 128
2020-09-15 14:23:46 GMT 55.568985 44.898209 36,975 92 476 128
2020-09-15 14:23:38 GMT 55.569809 44.868416 36,950 92 477 64
2020-09-15 14:23:35 GMT 55.570038 44.859840 36,950 92 477 64
2020-09-15 14:23:25 GMT 55.571129 44.819324 36,975 92 477 64
2020-09-15 14:23:18 GMT 55.571827 44.794090 36,950 92 477 0
2020-09-15 14:23:15 GMT 55.572189 44.780357 36,950 92 477 64
2020-09-15 14:23:04 GMT 55.573334 44.739491 36,950 92 478 -64
2020-09-15 14:22:58 GMT 55.573967 44.715984 36,975 92 478 -64
2020-09-15 14:22:54 GMT 55.574387 44.698818 36,975 92 478 -64
2020-09-15 14:22:47 GMT 55.575459 44.658821 37,000 92 478 -64
2020-09-15 14:22:43 GMT 55.575459 44.658821 37,000 92 478 -64
2020-09-15 14:22:34 GMT 55.576481 44.617882 37,000 92 478 0
2020-09-15 14:22:26 GMT 55.577087 44.593174 37,000 92 479 -64
2020-09-15 14:22:22 GMT 55.577454 44.577942 37,000 92 479 -64
2020-09-15 14:22:17 GMT 55.578003 44.553806 37,000 92 480 -64
2020-09-15 14:22:13 GMT 55.578297 44.539864 37,025 92 480 -64
2020-09-15 14:22:06 GMT 55.578949 44.512569 37,000 92 481 0
2020-09-15 14:22:03 GMT 55.579273 44.499264 37,000 92 481 0
2020-09-15 14:21:55 GMT 55.579926 44.471241 37,000 92 482 0
2020-09-15 14:21:52 GMT 55.580246 44.458260 37,000 92 483 0
2020-09-15 14:21:46 GMT 55.580906 44.432056 37,000 92 484 0
2020-09-15 14:21:41 GMT 55.581299 44.416893 37,000 92 484 0
2020-09-15 14:21:35 GMT 55.581928 44.389915 37,000 92 484 64
2020-09-15 14:21:31 GMT 55.582207 44.377296 37,000 92 484 64
2020-09-15 14:21:25 GMT 55.582859 44.348118 37,000 92 484 64
2020-09-15 14:21:22 GMT 55.583130 44.336075 36,975 92 484 64
2020-09-15 14:21:14 GMT 55.583817 44.307362 36,975 92 484 0
2020-09-15 14:21:11 GMT 55.584068 44.295757 37,000 92 483 0
2020-09-15 14:21:04 GMT 55.584816 44.264259 37,000 92 483 0
2020-09-15 14:21:00 GMT 55.585052 44.255009 37,000 92 482 0
2020-09-15 14:20:51 GMT 55.586025 44.212849 37,000 92 481 -64
2020-09-15 14:20:40 GMT 55.586838 44.174278 37,025 92 480 -64
2020-09-15 14:20:33 GMT 55.587524 44.143814 37,025 92 480 -64
2020-09-15 14:20:30 GMT 55.587700 44.134998 37,025 92 480 0
2020-09-15 14:20:19 GMT 55.588585 44.095085 37,000 92 482 64
2020-09-15 14:20:10 GMT 55.589470 44.054146 37,000 92 486 -384
2020-09-15 14:19:59 GMT 55.590446 44.013634 37,050 93 488 -64
2020-09-15 14:19:51 GMT 55.591919 43.977688 37,050 94 490 0
2020-09-15 14:19:48 GMT 55.592239 43.971695 37,050 95 492 64
2020-09-15 14:19:43 GMT 55.593380 43.952782 37,050 97 493 64
2020-09-15 14:19:39 GMT 55.594849 43.932163 37,025 97 494 64
2020-09-15 14:19:33 GMT 55.596954 43.907444 37,025 99 496 64
2020-09-15 14:19:28 GMT 55.598740 43.889050 37,025 99 497 64
2020-09-15 14:19:22 GMT 55.600876 43.868923 37,025 101 498 64
2020-09-15 14:19:18 GMT 55.603157 43.849869 37,000 102 499 64
2020-09-15 14:19:13 GMT 55.605576 43.831158 37,000 103 501 64
2020-09-15 14:19:07 GMT 55.608837 43.808243 37,000 104 501 64
2020-09-15 14:19:03 GMT 55.611584 43.790474 37,000 106 503 0
2020-09-15 14:18:57 GMT 55.615540 43.766869 37,000 107 504 0
2020-09-15 14:18:52 GMT 55.618660 43.749702 37,000 108 504 0
2020-09-15 14:18:47 GMT 55.622849 43.727901 37,000 109 504 0
2020-09-15 14:18:43 GMT 55.626389 43.710690 37,000 110 504 0
2020-09-15 14:18:36 GMT 55.631741 43.686359 37,000 111 504 0
2020-09-15 14:18:32 GMT 55.635315 43.670986 37,000 112 504 0
2020-09-15 14:18:27 GMT 55.640678 43.649281 37,000 114 504 0
2020-09-15 14:18:22 GMT 55.644928 43.633034 37,000 115 505 0
2020-09-15 14:18:16 GMT 55.650780 43.611774 37,000 116 505 0
2020-09-15 14:18:12 GMT 55.655575 43.595207 37,000 117 506 0
2020-09-15 14:18:06 GMT 55.661911 43.574272 37,000 119 508 0
2020-09-15 14:18:02 GMT 55.666763 43.559044 37,000 119 509 0
2020-09-15 14:17:56 GMT 55.673859 43.537071 37,000 119 510 0
2020-09-15 14:17:52 GMT 55.678665 43.522255 37,000 119 510 -64
2020-09-15 14:17:45 GMT 55.685974 43.499596 37,000 119 511 -64
2020-09-15 14:17:41 GMT 55.690952 43.483974 37,025 119 511 0
2020-09-15 14:17:35 GMT 55.698215 43.461487 37,025 119 511 0
2020-09-15 14:17:31 GMT 55.702545 43.448009 37,025 119 512 0
2020-09-15 14:17:25 GMT 55.709885 43.425293 37,000 119 514 -64
2020-09-15 14:17:20 GMT 55.715057 43.409313 37,000 119 515 -64
2020-09-15 14:17:15 GMT 55.722935 43.384926 37,000 119 517 -64
2020-09-15 14:17:10 GMT 55.726639 43.373276 37,025 118 518 0
2020-09-15 14:17:04 GMT 55.734283 43.348221 37,000 117 520 128
2020-09-15 14:17:00 GMT 55.738449 43.333908 37,000 116 521 128
2020-09-15 14:16:53 GMT 55.745560 43.308449 36,975 115 523 -64
2020-09-15 14:16:50 GMT 55.748978 43.295456 36,975 114 524 -256
2020-09-15 14:16:44 GMT 55.755936 43.268070 37,025 112 524 -64
2020-09-15 14:16:40 GMT 55.758865 43.255836 37,025 112 524 -64
2020-09-15 14:16:34 GMT 55.764832 43.229828 37,025 108 521 0
2020-09-15 14:16:30 GMT 55.768139 43.214638 37,025 110 523 0
2020-09-15 14:16:23 GMT 55.773560 43.188339 37,025 108 521 0
2020-09-15 14:16:20 GMT 55.776424 43.173611 37,025 108 521 0
2020-09-15 14:16:12 GMT 55.782104 43.142796 37,050 106 520 0
2020-09-15 14:16:09 GMT 55.784199 43.130524 37,050 106 519 -64
2020-09-15 14:16:03 GMT 55.788807 43.102367 37,050 102 516 0
2020-09-15 14:15:59 GMT 55.790588 43.090626 37,050 104 519 -64
2020-09-15 14:15:52 GMT 55.794800 43.061081 37,050 96 510 0
2020-09-15 14:15:49 GMT 55.796448 43.048679 37,050 102 517 0
2020-09-15 14:15:42 GMT 55.800117 43.019115 37,050 96 510 0
2020-09-15 14:15:37 GMT 55.802353 42.998856 37,050 100 514 64
2020-09-15 14:15:29 GMT 55.805939 42.961521 37,050 98 512 64
2020-09-15 14:15:19 GMT 55.808853 42.923916 37,050 95 508 64
2020-09-15 14:15:16 GMT 55.809753 42.910454 37,025 96 509 -64
2020-09-15 14:15:11 GMT 55.810867 42.891541 37,050 95 509 -64
2020-09-15 14:15:06 GMT 55.812038 42.870541 37,050 95 509 -64
2020-09-15 14:14:59 GMT 55.813526 42.844021 37,050 95 508 64
2020-09-15 14:14:55 GMT 55.814621 42.825123 37,050 95 508 0
2020-09-15 14:14:46 GMT 55.817001 42.782425 37,025 95 509 0
2020-09-15 14:14:37 GMT 55.818878 42.749004 37,025 95 508 0
2020-09-15 14:14:33 GMT 55.819763 42.732437 37,025 95 508 0
2020-09-15 14:14:27 GMT 55.821945 42.693287 37,025 95 507 0
2020-09-15 14:14:19 GMT 55.822815 42.677223 37,025 95 507 0
2020-09-15 14:14:16 GMT 55.823441 42.664974 37,025 95 506 64
2020-09-15 14:14:06 GMT 55.825653 42.624290 37,000 95 506 64
2020-09-15 14:13:56 GMT 55.827911 42.582836 37,000 95 506 0
2020-09-15 14:13:50 GMT 55.829353 42.557259 37,000 95 505 0
2020-09-15 14:13:44 GMT 55.830963 42.527328 37,000 95 505 0
2020-09-15 14:13:36 GMT 55.832565 42.497616 37,025 95 504 0
2020-09-15 14:13:33 GMT 55.833206 42.486130 37,025 95 504 0
2020-09-15 14:13:26 GMT 55.834755 42.456322 37,025 95 503 0
2020-09-15 14:13:22 GMT 55.835453 42.442329 37,025 95 503 0
2020-09-15 14:13:13 GMT 55.837784 42.395325 37,000 95 501 0
2020-09-15 14:13:05 GMT 55.839066 42.369942 37,000 95 501 64
2020-09-15 14:13:01 GMT 55.839752 42.355625 37,000 95 500 64
2020-09-15 14:12:56 GMT 55.841038 42.330067 36,975 95 501 128
2020-09-15 14:12:50 GMT 55.842178 42.308266 36,975 95 501 64
2020-09-15 14:12:45 GMT 55.843185 42.289371 36,975 95 501 0
2020-09-15 14:12:35 GMT 55.845337 42.248173 36,975 95 500 -64
2020-09-15 14:12:25 GMT 55.847443 42.207394 37,000 95 499 -64
2020-09-15 14:12:17 GMT 55.849140 42.174282 37,000 95 497 64
2020-09-15 14:12:14 GMT 55.849640 42.164696 37,000 95 497 64
2020-09-15 14:12:10 GMT 55.850674 42.144585 36,975 95 497 64
2020-09-15 14:12:04 GMT 55.851746 42.123745 36,975 95 497 0
2020-09-15 14:12:00 GMT 55.852570 42.107517 37,000 94 496 -64
2020-09-15 14:11:54 GMT 55.853794 42.082958 37,000 94 496 -64
2020-09-15 14:11:48 GMT 55.854904 42.059994 37,000 95 495 -64
2020-09-15 14:11:44 GMT 55.855911 42.040184 37,000 95 497 -64
2020-09-15 14:11:39 GMT 55.857426 42.015579 37,000 96 498 -64
2020-09-15 14:11:33 GMT 55.858543 41.999359 37,000 97 499 0
2020-09-15 14:11:30 GMT 55.862000 41.958534 37,000 98 501 0
2020-09-15 14:11:24 GMT 55.862000 41.958534 37,000 99 502 0
2020-09-15 14:11:20 GMT 55.863647 41.942307 37,000 100 503 64
2020-09-15 14:11:17 GMT 55.864609 41.933399 37,000 101 505 64
2020-09-15 14:11:13 GMT 55.866577 41.915920 37,000 101 505 64
2020-09-15 14:11:08 GMT 55.869854 41.889408 37,000 103 506 64
2020-09-15 14:11:03 GMT 55.871811 41.875248 37,000 104 508 64
2020-09-15 14:11:00 GMT 55.873718 41.861740 37,000 104 508 0
2020-09-15 14:10:53 GMT 55.877956 41.834133 37,000 106 510 64
2020-09-15 14:10:50 GMT 55.880096 41.821259 36,975 106 510 64
2020-09-15 14:10:40 GMT 55.887589 41.779423 36,975 108 512 0
2020-09-15 14:10:33 GMT 55.892944 41.752598 36,975 110 515 0
2020-09-15 14:10:29 GMT 55.902023 41.711140 36,975 112 517 0
2020-09-15 14:10:22 GMT 55.902023 41.711140 36,975 112 517 0
2020-09-15 14:10:18 GMT 55.908119 41.685734 36,975 113 518 64
2020-09-15 14:10:12 GMT 55.911564 41.672173 36,975 114 519 64
2020-09-15 14:10:08 GMT 55.915695 41.656494 36,950 115 521 64
2020-09-15 14:10:05 GMT 55.918716 41.645260 36,950 115 521 64
2020-09-15 14:10:01 GMT 55.922333 41.632275 36,950 116 521 64
2020-09-15 14:09:58 GMT 55.926270 41.618458 36,950 117 522 64
2020-09-15 14:09:49 GMT 55.937805 41.580673 36,950 119 525 0
2020-09-15 14:09:45 GMT 55.940987 41.570808 36,950 120 525 0
2020-09-15 14:09:42 GMT 55.945953 41.555786 36,975 121 526 -64
2020-09-15 14:09:38 GMT 55.950390 41.542568 36,975 121 525 -64
2020-09-15 14:09:34 GMT 55.955044 41.528919 36,975 121 525 -64
2020-09-15 14:09:31 GMT 55.958397 41.518967 36,975 121 525 -64
2020-09-15 14:09:26 GMT 55.964775 41.500080 36,975 120 524 -64
2020-09-15 14:09:21 GMT 55.971107 41.481197 37,000 120 524 0
2020-09-15 14:09:17 GMT 55.975525 41.468063 36,975 121 523 0
2020-09-15 14:09:11 GMT 55.984039 41.442928 36,975 121 523 0
2020-09-15 14:09:05 GMT 55.991543 41.420605 36,975 120 524 0
2020-09-15 14:09:00 GMT 55.996948 41.404556 36,975 120 524 0
2020-09-15 14:08:51 GMT 56.009262 41.367851 37,000 120 527 -64
2020-09-15 14:08:40 GMT 56.021893 41.330311 37,000 120 524 0
2020-09-15 14:08:30 GMT 56.034836 41.291771 37,000 120 527 -64
2020-09-15 14:08:19 GMT 56.047684 41.253490 37,000 120 525 64
2020-09-15 14:08:13 GMT 56.055782 41.229286 36,975 120 526 0
2020-09-15 14:08:10 GMT 56.060112 41.216328 36,975 120 526 0
2020-09-15 14:08:03 GMT 56.069504 41.188076 36,975 120 526 0
2020-09-15 14:08:00 GMT 56.072754 41.178337 36,975 120 527 -64
2020-09-15 14:07:55 GMT 56.085625 41.139679 37,000 120 528 0
2020-09-15 14:07:49 GMT 56.085625 41.139679 37,000 120 528 -64
2020-09-15 14:07:44 GMT 56.091492 41.122086 37,000 120 528 0
2020-09-15 14:07:39 GMT 56.098240 41.101830 37,000 120 528 0
2020-09-15 14:07:35 GMT 56.104572 41.082771 37,000 120 528 0
2020-09-15 14:07:27 GMT 56.112671 41.058395 37,000 120 528 0
2020-09-15 14:07:24 GMT 56.116837 41.045837 37,000 120 529 0
2020-09-15 14:07:18 GMT 56.125305 41.020370 37,000 120 529 -64
2020-09-15 14:07:14 GMT 56.130295 41.005306 37,000 120 529 -64
2020-09-15 14:07:06 GMT 56.138973 40.979176 37,025 120 529 -64
2020-09-15 14:07:03 GMT 56.143250 40.966187 37,025 120 529 -64
2020-09-15 14:06:58 GMT 56.149029 40.948708 37,025 120 529 -64
2020-09-15 14:06:52 GMT 56.156799 40.925156 37,025 120 529 0
2020-09-15 14:06:48 GMT 56.169090 40.888023 37,025 120 529 0
2020-09-15 14:06:43 GMT 56.169090 40.888023 37,025 120 529 0
2020-09-15 14:06:37 GMT 56.176540 40.865452 37,025 120 529 0
2020-09-15 14:06:31 GMT 56.183075 40.845669 37,025 120 529 64
2020-09-15 14:06:26 GMT 56.189018 40.827682 37,025 120 529 64
2020-09-15 14:06:22 GMT 56.195347 40.808456 37,025 120 530 0
2020-09-15 14:06:16 GMT 56.201958 40.788460 37,025 120 531 0
2020-09-15 14:06:09 GMT 56.209965 40.764256 37,025 120 531 -64
2020-09-15 14:06:06 GMT 56.214523 40.750454 37,025 120 530 -64
2020-09-15 14:06:00 GMT 56.221298 40.730064 37,025 120 530 0
2020-09-15 14:05:56 GMT 56.227661 40.710754 37,025 120 530 0
2020-09-15 14:05:51 GMT 56.233894 40.692158 37,025 120 531 0
2020-09-15 14:05:45 GMT 56.240570 40.671886 37,025 120 530 0
2020-09-15 14:05:37 GMT 56.250916 40.639927 37,025 119 530 0
2020-09-15 14:05:29 GMT 56.259293 40.613625 37,025 119 530 0
2020-09-15 14:05:26 GMT 56.263641 40.599808 37,025 119 530 0
2020-09-15 14:05:20 GMT 56.271927 40.573425 37,025 119 530 64
2020-09-15 14:05:14 GMT 56.277832 40.554615 37,000 119 530 64
2020-09-15 14:05:08 GMT 56.284588 40.533028 37,000 119 531 64
2020-09-15 14:05:04 GMT 56.290146 40.515163 37,000 119 530 64
2020-09-15 14:04:58 GMT 56.297791 40.490528 37,000 119 530 64
2020-09-15 14:04:53 GMT 56.302597 40.475212 37,000 119 530 64
2020-09-15 14:04:48 GMT 56.310284 40.450375 36,975 119 530 0
2020-09-15 14:04:44 GMT 56.314941 40.435352 36,975 119 530 0
2020-09-15 14:04:37 GMT 56.322739 40.410213 36,975 119 531 0
2020-09-15 14:04:33 GMT 56.327271 40.395561 36,975 119 531 0
2020-09-15 14:04:27 GMT 56.335785 40.368263 36,975 119 530 0
2020-09-15 14:04:22 GMT 56.339520 40.356133 36,975 119 530 0
2020-09-15 14:04:13 GMT 56.351349 40.318241 37,000 119 530 0
2020-09-15 14:04:06 GMT 56.360703 40.288067 37,000 119 530 0
2020-09-15 14:04:02 GMT 56.364716 40.275211 37,000 119 530 0
2020-09-15 14:03:55 GMT 56.373047 40.248329 37,000 119 529 0
2020-09-15 14:03:52 GMT 56.376064 40.238457 36,975 119 529 0
2020-09-15 14:03:44 GMT 56.385681 40.207546 36,975 119 530 64
2020-09-15 14:03:41 GMT 56.389160 40.196396 36,975 119 530 64
2020-09-15 14:03:34 GMT 56.397491 40.169430 36,975 119 530 64
2020-09-15 14:03:31 GMT 56.400604 40.159439 36,975 119 530 64
2020-09-15 14:03:22 GMT 56.412655 40.120354 36,950 118 529 0
2020-09-15 14:03:14 GMT 56.422119 40.089279 36,950 118 529 0
2020-09-15 14:03:11 GMT 56.425037 40.079842 36,950 118 529 0
2020-09-15 14:03:03 GMT 56.433929 40.050659 36,950 118 529 64
2020-09-15 14:03:00 GMT 56.436996 40.040672 36,950 118 529 64
2020-09-15 14:02:51 GMT 56.449310 40.000553 36,950 118 529 0
2020-09-15 14:02:42 GMT 56.459484 39.967232 36,975 118 528 0
2020-09-15 14:02:39 GMT 56.461720 39.959934 36,975 118 528 0
2020-09-15 14:02:32 GMT 56.469955 39.932724 36,975 118 528 0
2020-09-15 14:02:29 GMT 56.473526 39.921154 36,975 118 528 0
2020-09-15 14:02:21 GMT 56.484249 39.885864 36,975 118 528 -64
2020-09-15 14:02:18 GMT 56.486664 39.877956 36,975 118 528 -64
2020-09-15 14:02:12 GMT 56.494034 39.853573 37,000 118 528 -128
2020-09-15 14:02:09 GMT 56.498402 39.839088 37,000 118 528 -128
2020-09-15 14:02:01 GMT 56.507584 39.808708 37,025 118 528 -128
2020-09-15 14:01:58 GMT 56.510551 39.798832 37,025 118 528 -128
2020-09-15 14:01:51 GMT 56.519897 39.768009 37,025 118 529 -64
2020-09-15 14:01:46 GMT 56.524426 39.753170 37,025 118 529 -64
2020-09-15 14:01:41 GMT 56.529877 39.735134 37,025 118 529 0
2020-09-15 14:01:38 GMT 56.533401 39.723564 37,025 118 529 0
2020-09-15 14:01:32 GMT 56.542068 39.694977 37,025 118 530 -64
2020-09-15 14:01:28 GMT 56.545532 39.683533 37,025 118 531 -64
2020-09-15 14:01:21 GMT 56.554031 39.655411 37,050 118 531 -64
2020-09-15 14:01:11 GMT 56.565765 39.616444 37,050 118 531 0
2020-09-15 14:01:04 GMT 56.573490 39.590778 37,050 118 531 0
2020-09-15 14:00:58 GMT 56.581558 39.564014 37,050 118 532 0
2020-09-15 14:00:49 GMT 56.594788 39.519794 37,050 118 532 0
2020-09-15 14:00:40 GMT 56.606552 39.480659 37,025 118 533 64
2020-09-15 14:00:36 GMT 56.606552 39.480659 37,025 118 533 64
2020-09-15 14:00:30 GMT 56.613922 39.455936 37,025 118 533 64
2020-09-15 14:00:26 GMT 56.617950 39.442425 37,025 118 533 64
2020-09-15 14:00:20 GMT 56.625595 39.416714 37,025 118 533 64
2020-09-15 14:00:17 GMT 56.630035 39.401779 37,000 118 533 64
2020-09-15 14:00:09 GMT 56.637733 39.376152 37,000 118 533 64
2020-09-15 14:00:06 GMT 56.642063 39.361622 37,000 118 532 0
2020-09-15 14:00:00 GMT 56.655422 39.316525 37,000 118 531 0
2020-09-15 13:59:54 GMT 56.655422 39.316525 37,000 118 531 0
2020-09-15 13:59:49 GMT 56.661476 39.296059 37,000 118 531 0
2020-09-15 13:59:45 GMT 56.666061 39.280586 37,000 118 531 0
2020-09-15 13:59:39 GMT 56.673019 39.257069 37,000 118 531 0
2020-09-15 13:59:34 GMT 56.678787 39.237499 37,025 118 531 0
2020-09-15 13:59:29 GMT 56.685196 39.215958 37,025 118 531 0
2020-09-15 13:59:25 GMT 56.689777 39.200546 37,025 118 530 0
2020-09-15 13:59:22 GMT 56.692711 39.190712 37,025 118 530 0
2020-09-15 13:59:18 GMT 56.697227 39.175472 37,025 118 530 64
2020-09-15 13:59:15 GMT 56.701447 39.161110 37,000 118 531 0
2020-09-15 13:59:09 GMT 56.708679 39.136669 37,000 118 530 0
2020-09-15 13:59:03 GMT 56.716034 39.111504 37,000 118 530 0
2020-09-15 13:58:58 GMT 56.720737 39.095379 37,025 118 530 -64
2020-09-15 13:58:54 GMT 56.725250 39.080139 37,025 118 530 0
2020-09-15 13:58:48 GMT 56.732143 39.056576 37,025 118 529 64
2020-09-15 13:58:42 GMT 56.739681 39.031147 37,025 118 530 0
2020-09-15 13:58:38 GMT 56.743919 39.016617 37,025 118 530 0
2020-09-15 13:58:33 GMT 56.748917 38.999493 37,000 118 530 0
2020-09-15 13:58:28 GMT 56.755417 38.977367 37,025 118 530 0
2020-09-15 13:58:24 GMT 56.760544 38.959839 37,025 118 530 0
2020-09-15 13:58:18 GMT 56.767242 38.936874 37,025 118 530 0
2020-09-15 13:58:12 GMT 56.773106 38.916851 37,025 117 529 -64
2020-09-15 13:58:07 GMT 56.778992 38.896580 37,025 118 529 0
2020-09-15 13:58:03 GMT 56.784187 38.878754 37,025 118 529 0
2020-09-15 13:57:57 GMT 56.790802 38.856152 37,025 118 529 0
2020-09-15 13:57:53 GMT 56.796383 38.837112 37,025 118 529 0
2020-09-15 13:57:46 GMT 56.802807 38.815140 37,000 117 527 64
2020-09-15 13:57:42 GMT 56.814354 38.775536 36,975 117 528 0
2020-09-15 13:57:36 GMT 56.819641 38.757278 37,000 117 527 64
2020-09-15 13:57:32 GMT 56.825821 38.735992 36,975 117 528 0
2020-09-15 13:57:27 GMT 56.825821 38.735992 37,000 117 528 64
2020-09-15 13:57:20 GMT 56.837723 38.694912 36,975 117 528 64
2020-09-15 13:57:16 GMT 56.837723 38.694912 36,975 118 529 64
2020-09-15 13:57:12 GMT 56.843445 38.675480 36,975 118 528 0
2020-09-15 13:57:06 GMT 56.849396 38.655136 36,950 117 527 0
2020-09-15 13:56:59 GMT 56.857834 38.625893 36,975 117 527 64
2020-09-15 13:56:56 GMT 56.860813 38.615616 36,975 117 527 64
2020-09-15 13:56:49 GMT 56.868401 38.589298 36,975 117 527 64
2020-09-15 13:56:46 GMT 56.872192 38.576176 36,975 117 527 64
2020-09-15 13:56:39 GMT 56.880692 38.546417 36,950 117 527 64
2020-09-15 13:56:33 GMT 56.887581 38.522495 36,950 117 527 0
2020-09-15 13:56:28 GMT 56.892235 38.506283 36,950 117 527 0
2020-09-15 13:56:25 GMT 56.895447 38.495064 36,950 117 527 0
2020-09-15 13:56:20 GMT 56.901127 38.475185 36,950 117 526 0
2020-09-15 13:56:15 GMT 56.906757 38.455517 36,950 117 527 0
2020-09-15 13:56:09 GMT 56.913391 38.432491 36,950 117 527 0
2020-09-15 13:56:04 GMT 56.919113 38.412411 36,950 117 526 0
2020-09-15 13:56:00 GMT 56.924496 38.393848 36,950 117 526 0
2020-09-15 13:55:54 GMT 56.930099 38.374386 36,950 117 526 -64
2020-09-15 13:55:49 GMT 56.936039 38.353714 36,950 117 526 0
2020-09-15 13:55:43 GMT 56.943192 38.328812 36,950 117 526 0
2020-09-15 13:55:39 GMT 56.947769 38.312675 36,950 117 525 0
2020-09-15 13:55:28 GMT 56.959270 38.272293 36,950 117 525 0
2020-09-15 13:55:22 GMT 56.966995 38.244953 36,950 117 525 0
2020-09-15 13:55:17 GMT 56.972630 38.224979 36,950 117 525 0
2020-09-15 13:55:13 GMT 56.976540 38.211159 36,950 117 525 0
2020-09-15 13:55:06 GMT 56.983662 38.185997 36,975 117 526 -64
2020-09-15 13:55:03 GMT 56.988037 38.170578 36,975 117 526 -64
2020-09-15 13:55:00 GMT 56.991531 38.158352 36,975 117 526 -64
2020-09-15 13:54:56 GMT 56.994965 38.146336 36,975 117 526 -64
2020-09-15 13:54:53 GMT 56.998840 38.132748 36,975 117 526 -64
2020-09-15 13:54:45 GMT 57.008102 38.100243 36,975 117 526 0
2020-09-15 13:54:41 GMT 57.012680 38.084023 36,975 117 526 -64
2020-09-15 13:54:34 GMT 57.020233 38.057587 36,975 117 527 -64
2020-09-15 13:54:31 GMT 57.029297 38.025570 37,050 117 526 -64
2020-09-15 13:54:26 GMT 57.029297 38.025570 37,000 117 526 -64
2020-09-15 13:54:22 GMT 57.033939 38.008621 37,000 116 527 -128
2020-09-15 13:54:14 GMT 57.042709 37.975185 37,025 114 524 -128
2020-09-15 13:54:07 GMT 57.049442 37.948372 37,025 114 524 -64
2020-09-15 13:54:03 GMT 57.053772 37.931007 37,025 114 524 -64
2020-09-15 13:53:59 GMT 57.057541 37.916122 37,025 114 525 -64
2020-09-15 13:53:55 GMT 57.061432 37.900517 37,025 114 526 -64
2020-09-15 13:53:49 GMT 57.067318 37.877228 37,050 113 528 64
2020-09-15 13:53:45 GMT 57.071457 37.860863 37,050 114 527 -64
2020-09-15 13:53:42 GMT 57.074627 37.848080 37,050 113 528 64
2020-09-15 13:53:34 GMT 57.083267 37.813828 37,050 114 527 0
2020-09-15 13:53:24 GMT 57.102493 37.735031 37,025 113 528 64
2020-09-15 13:53:15 GMT 57.105816 37.720848 37,025 113 528 64
2020-09-15 13:53:11 GMT 57.105816 37.720848 37,025 113 528 64
2020-09-15 13:53:03 GMT 57.112938 37.689926 37,025 112 528 0
2020-09-15 13:52:53 GMT 57.122341 37.649082 37,025 112 529 0
2020-09-15 13:52:42 GMT 57.132889 37.602940 37,050 112 528 -64
2020-09-15 13:52:30 GMT 57.143894 37.554813 37,050 112 528 -64
2020-09-15 13:52:23 GMT 57.152370 37.517601 37,050 112 528 0
2020-09-15 13:52:11 GMT 57.162003 37.475224 37,025 112 528 0
2020-09-15 13:52:00 GMT 57.172295 37.429977 37,050 112 527 -64
2020-09-15 13:51:49 GMT 57.182877 37.383041 37,050 112 527 64
2020-09-15 13:51:43 GMT 57.188679 37.357147 37,025 112 527 64
2020-09-15 13:51:40 GMT 57.191471 37.344746 37,025 112 527 64
2020-09-15 13:51:29 GMT 57.201141 37.301414 37,025 112 527 64
2020-09-15 13:51:20 GMT 57.209812 37.262699 37,025 112 526 64
2020-09-15 13:51:09 GMT 57.221127 37.212200 37,000 112 526 0
2020-09-15 13:50:59 GMT 57.228901 37.177467 37,000 112 526 64
2020-09-15 13:50:49 GMT 57.238586 37.134216 37,000 112 526 64
2020-09-15 13:50:38 GMT 57.248840 37.087784 37,000 112 525 0
2020-09-15 13:50:29 GMT 57.257446 37.048473 37,000 111 524 0
2020-09-15 13:50:18 GMT 57.266785 37.005817 37,000 112 524 64
2020-09-15 13:50:07 GMT 57.276215 36.963242 36,975 112 525 64
2020-09-15 13:49:57 GMT 57.295376 36.879066 37,000 112 523 0
2020-09-15 13:49:47 GMT 57.305099 36.836555 37,000 112 523 0
2020-09-15 13:49:37 GMT 57.305099 36.836555 37,000 112 523 0
2020-09-15 13:49:26 GMT 57.314438 36.795444 37,000 112 523 -64
2020-09-15 13:49:17 GMT 57.324287 36.752014 37,000 112 523 0
2020-09-15 13:49:05 GMT 57.334351 36.707897 37,000 112 522 64
2020-09-15 13:48:54 GMT 57.345474 36.658974 37,000 112 522 0
2020-09-15 13:48:43 GMT 57.354858 36.617516 37,000 112 522 0
2020-09-15 13:48:35 GMT 57.362640 36.582928 37,000 112 522 0
2020-09-15 13:48:25 GMT 57.372025 36.541470 37,000 112 521 0
2020-09-15 13:48:14 GMT 57.381958 36.497524 37,000 112 521 64
2020-09-15 13:48:05 GMT 57.391159 36.456928 37,000 112 520 0
2020-09-15 13:47:54 GMT 57.407333 36.384415 37,000 112 520 64
2020-09-15 13:47:46 GMT 57.407333 36.384415 37,000 112 519 0
2020-09-15 13:47:43 GMT 57.410175 36.371746 37,000 112 519 0
2020-09-15 13:47:33 GMT 57.419312 36.330929 37,000 112 519 0
2020-09-15 13:47:23 GMT 57.429073 36.287224 37,000 112 519 -64
2020-09-15 13:47:18 GMT 57.433823 36.265869 37,000 112 519 0
2020-09-15 13:47:12 GMT 57.439037 36.242477 37,000 112 519 0
2020-09-15 13:47:02 GMT 57.448196 36.201153 37,000 112 519 0
2020-09-15 13:46:53 GMT 57.456776 36.162384 36,975 112 518 0
2020-09-15 13:46:40 GMT 57.468178 36.110996 37,000 112 518 0
2020-09-15 13:46:31 GMT 57.475845 36.076267 37,000 112 518 -64
2020-09-15 13:46:25 GMT 57.481773 36.049332 37,000 112 518 0
2020-09-15 13:46:21 GMT 57.485550 36.032238 37,000 112 518 0
2020-09-15 13:46:12 GMT 57.494110 35.993183 37,000 112 519 0
2020-09-15 13:45:59 GMT 57.504955 35.943989 37,000 112 519 0
2020-09-15 13:45:50 GMT 57.513241 35.906155 37,000 112 519 0
2020-09-15 13:45:41 GMT 57.522629 35.863407 37,000 112 519 0
2020-09-15 13:45:30 GMT 57.531582 35.822430 36,975 112 519 0
2020-09-15 13:45:19 GMT 57.541035 35.779102 37,000 111 519 -64
2020-09-15 13:45:08 GMT 57.551376 35.731400 37,000 111 519 0
2020-09-15 13:44:52 GMT 57.566776 35.660114 37,000 111 519 0
2020-09-15 13:44:41 GMT 57.575638 35.618877 37,000 111 520 0
2020-09-15 13:44:37 GMT 57.579117 35.602741 37,000 111 520 0
2020-09-15 13:44:27 GMT 57.588135 35.560944 37,000 111 520 0
2020-09-15 13:44:18 GMT 57.595642 35.526093 37,000 111 520 0
2020-09-15 13:44:07 GMT 57.605556 35.479816 37,025 111 520 0
2020-09-15 13:43:57 GMT 57.614182 35.439835 37,025 111 520 0
2020-09-15 13:43:48 GMT 57.623474 35.396576 37,025 111 521 64
2020-09-15 13:43:37 GMT 57.632584 35.354176 37,025 111 521 0
2020-09-15 13:43:27 GMT 57.641541 35.312363 37,025 111 521 0
2020-09-15 13:43:16 GMT 57.651176 35.266911 37,025 111 521 0
2020-09-15 13:43:04 GMT 57.661652 35.218182 37,025 112 523 0
2020-09-15 13:42:56 GMT 57.669846 35.183289 37,025 115 526 0
2020-09-15 13:42:44 GMT 57.682785 35.134632 37,025 117 528 0
2020-09-15 13:42:36 GMT 57.692841 35.100788 37,025 120 531 0
2020-09-15 13:42:24 GMT 57.707691 35.055866 37,025 123 534 0
2020-09-15 13:42:15 GMT 57.720200 35.021927 37,025 125 536 0
2020-09-15 13:42:04 GMT 57.735580 34.983925 37,025 129 538 0
2020-09-15 13:41:54 GMT 57.752335 34.946533 37,025 131 539 0
2020-09-15 13:41:44 GMT 57.769650 34.911438 37,025 134 540 64
2020-09-15 13:41:33 GMT 57.789806 34.874634 37,000 137 541 64
2020-09-15 13:41:23 GMT 57.809315 34.842499 37,000 140 542 0
2020-09-15 13:41:12 GMT 57.828735 34.813370 37,000 142 542 0
2020-09-15 13:41:02 GMT 57.849380 34.784576 37,000 143 542 0
2020-09-15 13:40:48 GMT 57.877350 34.745857 37,000 143 542 0
2020-09-15 13:40:42 GMT 57.891861 34.725834 37,000 143 541 0
2020-09-15 13:40:31 GMT 57.911545 34.698635 36,975 143 541 64
2020-09-15 13:40:20 GMT 57.933514 34.668091 36,975 143 541 0
2020-09-15 13:40:11 GMT 57.952789 34.641357 36,975 143 540 0
2020-09-15 13:40:00 GMT 57.973709 34.612251 36,975 143 541 0
2020-09-15 13:39:50 GMT 57.994034 34.583862 36,975 143 540 -64
2020-09-15 13:39:39 GMT 58.016052 34.553101 36,975 143 540 0
2020-09-15 13:39:30 GMT 58.035187 34.526485 36,975 143 539 0
2020-09-15 13:39:18 GMT 58.057251 34.495831 36,975 143 540 0
2020-09-15 13:39:09 GMT 58.076618 34.468964 36,975 143 540 0
2020-09-15 13:38:58 GMT 58.097565 34.440216 37,000 143 540 0
2020-09-15 13:38:47 GMT 58.119026 34.410278 37,000 143 540 0
2020-09-15 13:38:38 GMT 58.137787 34.383087 37,000 141 540 0
2020-09-15 13:38:32 GMT 58.148682 34.366608 37,000 141 540 0
2020-09-15 13:38:27 GMT 58.158142 34.352299 36,975 141 540 0
2020-09-15 13:38:17 GMT 58.179565 34.319782 37,000 141 540 -64
2020-09-15 13:38:13 GMT 58.185974 34.310036 37,000 141 541 0
2020-09-15 13:38:04 GMT 58.205841 34.279915 37,000 141 541 0
2020-09-15 13:37:56 GMT 58.219070 34.259800 37,000 141 541 0
2020-09-15 13:37:53 GMT 58.225025 34.250793 37,000 141 541 0
2020-09-15 13:37:46 GMT 58.238667 34.230011 37,000 141 541 0
2020-09-15 13:37:43 GMT 58.245647 34.219299 37,000 141 541 0
2020-09-15 13:37:35 GMT 58.259537 34.198048 37,000 141 541 0
2020-09-15 13:37:32 GMT 58.265480 34.188995 37,000 141 541 0
2020-09-15 13:37:22 GMT 58.284752 34.159515 37,000 141 542 0
2020-09-15 13:37:13 GMT 58.304817 34.128845 37,000 141 542 -64
2020-09-15 13:37:02 GMT 58.324356 34.098816 37,000 141 542 -64
2020-09-15 13:36:55 GMT 58.338287 34.077393 37,000 140 543 64
2020-09-15 13:36:51 GMT 58.345367 34.066479 37,000 140 543 64
2020-09-15 13:36:42 GMT 58.364357 34.037201 37,000 140 543 64
2020-09-15 13:36:34 GMT 58.379299 34.014130 37,000 140 543 0
2020-09-15 13:36:31 GMT 58.384460 34.006142 37,000 141 543 0
2020-09-15 13:36:22 GMT 58.403877 33.976318 37,000 141 543 -64
2020-09-15 13:36:11 GMT 58.424469 33.944740 37,000 141 543 -64
2020-09-15 13:36:03 GMT 58.439026 33.922394 37,000 141 543 -64
2020-09-15 13:36:00 GMT 58.446056 33.911499 37,000 141 543 -64
2020-09-15 13:35:51 GMT 58.464397 33.883301 37,000 141 543 0
2020-09-15 13:35:43 GMT 58.484276 33.852539 37,000 140 544 0
2020-09-15 13:35:40 GMT 58.484276 33.852539 37,000 141 543 0
2020-09-15 13:35:33 GMT 58.497959 33.831482 37,000 140 544 0
2020-09-15 13:35:30 GMT 58.503780 33.822418 37,000 141 543 0
2020-09-15 13:35:19 GMT 58.524868 33.789825 37,000 141 543 0
2020-09-15 13:35:11 GMT 58.540009 33.766479 37,000 140 544 0
2020-09-15 13:35:08 GMT 58.546051 33.757088 37,000 140 544 0
2020-09-15 13:35:02 GMT 58.557453 33.739380 37,000 140 544 0
2020-09-15 13:34:59 GMT 58.564297 33.728851 37,000 140 544 0
2020-09-15 13:34:50 GMT 58.583801 33.698547 37,000 141 545 0
2020-09-15 13:34:39 GMT 58.603409 33.668045 37,000 140 545 0
2020-09-15 13:34:32 GMT 58.616810 33.647278 37,000 140 545 0
2020-09-15 13:34:28 GMT 58.624741 33.634911 37,000 140 545 0
2020-09-15 13:34:19 GMT 58.643097 33.606380 37,000 141 545 0
2020-09-15 13:34:11 GMT 58.657745 33.583698 37,000 141 544 0
2020-09-15 13:34:07 GMT 58.665344 33.571915 37,000 141 544 0
2020-09-15 13:33:59 GMT 58.682922 33.544716 37,000 141 543 64
2020-09-15 13:33:51 GMT 58.696518 33.523540 37,000 140 542 0
2020-09-15 13:33:48 GMT 58.703209 33.513062 37,000 140 542 0
2020-09-15 13:33:38 GMT 58.722153 33.482872 37,000 139 540 64
2020-09-15 13:33:28 GMT 58.741756 33.450623 37,025 139 540 0
2020-09-15 13:33:20 GMT 58.756744 33.425995 37,025 139 540 0
2020-09-15 13:33:16 GMT 58.762798 33.416016 37,025 139 540 0
2020-09-15 13:33:08 GMT 58.781479 33.385326 37,025 139 541 -64
2020-09-15 13:32:56 GMT 58.801018 33.353210 37,000 139 544 0
2020-09-15 13:32:46 GMT 58.820068 33.321800 36,975 139 548 192
2020-09-15 13:32:40 GMT 58.833042 33.300385 36,925 139 551 640
2020-09-15 13:32:37 GMT 58.838928 33.290611 36,900 139 552 832
2020-09-15 13:32:29 GMT 58.854218 33.265320 36,775 139 555 1024
2020-09-15 13:32:26 GMT 58.858788 33.257698 36,725 139 556 960
2020-09-15 13:32:19 GMT 58.873775 33.232792 36,600 139 558 1024
2020-09-15 13:32:16 GMT 58.879829 33.222752 36,550 139 559 1024
2020-09-15 13:32:06 GMT 58.898300 33.191986 36,400 139 560 1024
2020-09-15 13:31:55 GMT 58.919956 33.155888 36,225 139 561 960
2020-09-15 13:31:45 GMT 58.939865 33.122681 36,050 139 561 1024
2020-09-15 13:31:38 GMT 58.953663 33.099533 35,950 139 560 1408
2020-09-15 13:31:35 GMT 58.959412 33.089905 35,900 139 560 1024
2020-09-15 13:31:25 GMT 58.978100 33.058620 35,675 139 560 1344
2020-09-15 13:31:15 GMT 58.998734 33.023987 35,450 139 562 1408
2020-09-15 13:31:05 GMT 59.018326 32.991119 35,225 139 562 1408
2020-09-15 13:30:55 GMT 59.038101 32.957794 34,975 139 562 1344
2020-09-15 13:30:45 GMT 59.057693 32.924835 34,750 139 562 1408
2020-09-15 13:30:34 GMT 59.078373 32.889942 34,500 139 562 1280
2020-09-15 13:30:25 GMT 59.098068 32.856720 34,300 139 562 1152
2020-09-15 13:30:14 GMT 59.117943 32.823170 34,125 138 560 768
2020-09-15 13:30:04 GMT 59.137402 32.790211 33,975 138 558 1216
2020-09-15 13:29:54 GMT 59.157558 32.756020 33,700 138 558 2048
2020-09-15 13:29:44 GMT 59.177124 32.722778 33,325 138 561 2368
2020-09-15 13:29:34 GMT 59.197632 32.687805 32,950 138 564 1984
2020-09-15 13:29:23 GMT 59.217865 32.653290 32,600 138 566 2112
2020-09-15 13:29:13 GMT 59.237732 32.619232 32,225 138 569 2304
2020-09-15 13:29:05 GMT 59.252930 32.593140 31,925 138 571 2240
2020-09-15 13:29:02 GMT 59.257973 32.584503 31,825 138 571 2240
2020-09-15 13:28:55 GMT 59.272339 32.559814 31,575 138 573 1984
2020-09-15 13:28:52 GMT 59.277695 32.550568 31,500 138 573 1984
2020-09-15 13:28:43 GMT 59.299080 32.513847 31,175 138 574 1728
2020-09-15 13:28:35 GMT 59.312580 32.490551 30,775 138 573 1536
2020-09-15 13:28:31 GMT 59.319626 32.478424 30,875 138 573 1536
2020-09-15 13:28:24 GMT 59.333313 32.454803 30,400 138 573 1536
2020-09-15 13:28:21 GMT 59.339111 32.444710 30,625 138 572 1536
2020-09-15 13:28:12 GMT 59.359505 32.409477 30,350 138 572 1792
2020-09-15 13:28:01 GMT 59.379848 32.374153 30,025 138 572 1792
2020-09-15 13:27:51 GMT 59.400330 32.338715 29,775 138 571 1088
2020-09-15 13:27:43 GMT 59.415833 32.311928 29,650 138 568 960
2020-09-15 13:27:40 GMT 59.420654 32.303558 29,625 138 568 896
2020-09-15 13:27:34 GMT 59.440247 32.269684 29,450 138 564 1024
2020-09-15 13:27:21 GMT 59.459824 32.235687 29,275 138 561 1088
2020-09-15 13:27:13 GMT 59.474628 32.208790 29,150 135 558 896
2020-09-15 13:27:10 GMT 59.478443 32.201305 29,125 133 557 960
2020-09-15 13:27:00 GMT 59.496506 32.160866 28,925 127 551 1280
2020-09-15 13:26:50 GMT 59.511154 32.120453 28,675 122 547 1920
2020-09-15 13:26:42 GMT 59.521458 32.086140 28,400 117 544 1792
2020-09-15 13:26:39 GMT 59.524429 32.074951 28,325 116 543 1728
2020-09-15 13:26:30 GMT 59.534492 32.030449 28,100 110 535 1344
2020-09-15 13:26:22 GMT 59.540314 31.997314 27,900 106 529 1344
2020-09-15 13:26:19 GMT 59.542358 31.983664 27,850 105 527 1280
2020-09-15 13:26:12 GMT 59.546677 31.949799 27,675 101 519 1152
2020-09-15 13:26:09 GMT 59.548004 31.937714 27,650 101 517 1152
2020-09-15 13:25:59 GMT 59.552418 31.890564 27,450 100 513 1216
2020-09-15 13:25:51 GMT 59.555630 31.855331 27,250 100 510 1408
2020-09-15 13:25:48 GMT 59.556747 31.843323 27,225 100 509 1472
2020-09-15 13:25:39 GMT 59.560913 31.797821 26,950 100 506 1664
2020-09-15 13:25:31 GMT 59.563934 31.764221 26,775 100 505 1344
2020-09-15 13:25:28 GMT 59.565216 31.750214 26,700 100 504 1280
2020-09-15 13:25:18 GMT 59.569244 31.705261 26,525 100 499 1024
2020-09-15 13:25:10 GMT 59.573364 31.658936 26,325 100 494 1216
2020-09-15 13:24:58 GMT 59.577209 31.615723 26,100 99 491 1536
2020-09-15 13:24:50 GMT 59.580254 31.581242 25,825 99 488 1664
2020-09-15 13:24:47 GMT 59.581284 31.569672 25,825 99 488 1664
2020-09-15 13:24:40 GMT 59.584118 31.537485 25,600 99 486 1728
2020-09-15 13:24:36 GMT 59.585468 31.522333 25,500 99 486 1792
2020-09-15 13:24:30 GMT 59.587982 31.493542 25,300 99 484 1984
2020-09-15 13:24:27 GMT 59.589146 31.480091 25,175 99 484 1984
2020-09-15 13:24:17 GMT 59.592964 31.437189 24,850 99 483 2048
2020-09-15 13:24:07 GMT 59.596802 31.393799 24,500 99 481 2112
2020-09-15 13:23:59 GMT 59.599621 31.361231 24,225 99 480 2048
2020-09-15 13:23:56 GMT 59.600693 31.349396 24,150 99 479 2048
2020-09-15 13:23:46 GMT 59.604416 31.306299 23,800 99 477 2112
2020-09-15 13:23:38 GMT 59.607605 31.270020 23,500 99 476 2176
2020-09-15 13:23:35 GMT 59.608559 31.259230 23,400 99 475 2176
2020-09-15 13:23:28 GMT 59.611210 31.227976 23,125 99 474 2176
2020-09-15 13:23:25 GMT 59.612141 31.217367 23,050 99 474 2176
2020-09-15 13:23:16 GMT 59.615772 31.175316 22,700 99 472 2048
2020-09-15 13:23:06 GMT 59.619358 31.132980 22,350 99 470 2112
2020-09-15 13:22:56 GMT 59.623123 31.089020 22,000 99 467 1984
2020-09-15 13:22:48 GMT 59.625782 31.057404 21,750 99 464 1920
2020-09-15 13:22:45 GMT 59.626713 31.046511 21,675 99 463 1984
2020-09-15 13:22:35 GMT 59.630310 31.004059 21,325 99 459 2112
2020-09-15 13:22:27 GMT 59.632999 30.972164 21,050 99 457 2048
2020-09-15 13:22:24 GMT 59.633926 30.961304 20,950 99 456 2048
2020-09-15 13:22:15 GMT 59.637314 30.921570 20,600 99 453 2432
2020-09-15 13:22:05 GMT 59.640884 30.878906 20,175 99 450 2112
2020-09-15 13:21:56 GMT 59.643494 30.847778 19,950 99 447 1792
2020-09-15 13:21:53 GMT 59.644588 30.834644 19,850 99 446 1728
2020-09-15 13:21:44 GMT 59.647755 30.796288 19,525 99 441 2304
2020-09-15 13:21:36 GMT 59.650314 30.765472 19,200 99 440 2560
2020-09-15 13:21:27 GMT 59.653244 30.730316 18,850 99 437 2176
2020-09-15 13:21:24 GMT 59.654617 30.713745 18,700 99 437 2112
2020-09-15 13:21:16 GMT 59.657158 30.686235 18,450 101 435 2240
2020-09-15 13:21:13 GMT 59.658325 30.674744 18,350 101 434 2304
2020-09-15 13:21:03 GMT 59.662582 30.635742 17,950 102 431 2432
2020-09-15 13:20:55 GMT 59.667122 30.593798 17,475 102 428 2560
2020-09-15 13:20:43 GMT 59.671326 30.555084 17,050 102 425 2432
2020-09-15 13:20:34 GMT 59.674210 30.528534 16,775 102 423 2432
2020-09-15 13:20:31 GMT 59.675686 30.515188 16,625 102 421 2496
2020-09-15 13:20:25 GMT 59.678341 30.491133 16,350 102 420 2560
2020-09-15 13:20:21 GMT 59.679703 30.478638 16,200 101 418 2560
2020-09-15 13:20:14 GMT 59.682529 30.451544 15,900 101 416 2752
2020-09-15 13:20:04 GMT 59.686394 30.414417 15,425 101 414 2688
2020-09-15 13:19:54 GMT 59.690208 30.376818 15,000 100 409 2176
2020-09-15 13:19:50 GMT 59.691559 30.362640 14,875 99 406 2048
2020-09-15 13:19:43 GMT 59.693298 30.339020 14,650 97 400 1984
2020-09-15 13:19:40 GMT 59.694027 30.326906 14,525 95 396 2368
2020-09-15 13:19:34 GMT 59.695084 30.303772 14,250 93 391 3008
2020-09-15 13:19:30 GMT 59.695496 30.291321 14,050 93 390 3392
2020-09-15 13:19:20 GMT 59.696217 30.253790 13,425 91 390 3712
2020-09-15 13:19:13 GMT 59.696541 30.229166 13,025 91 390 3328
2020-09-15 13:19:08 GMT 59.696640 30.213684 12,800 90 389 2944
2020-09-15 13:19:03 GMT 59.696728 30.194029 12,525 91 388 2752
2020-09-15 13:18:59 GMT 59.696960 30.181824 12,375 94 387 2304
2020-09-15 13:18:53 GMT 59.698078 30.158796 12,150 97 384 1984
2020-09-15 13:18:49 GMT 59.698975 30.146851 12,025 100 383 1728
2020-09-15 13:18:42 GMT 59.701477 30.123186 11,875 103 377 1216
2020-09-15 13:18:39 GMT 59.703049 30.110046 11,800 103 371 1152
2020-09-15 13:18:32 GMT 59.705524 30.089659 11,675 103 360 1216
2020-09-15 13:18:29 GMT 59.706829 30.078388 11,600 103 356 1344
2020-09-15 13:18:22 GMT 59.709343 30.057741 11,475 104 346 1152
2020-09-15 13:18:12 GMT 59.713486 30.026917 11,250 108 331 1280
2020-09-15 13:18:05 GMT 59.717010 30.006409 11,100 110 325 1344
2020-09-15 13:18:01 GMT 59.718979 29.996521 11,000 112 320 1792
2020-09-15 13:17:51 GMT 59.726566 29.970514 10,725 129 311 1536
2020-09-15 13:17:41 GMT 59.736671 29.951382 10,400 144 301 2752
2020-09-15 13:17:31 GMT 59.748779 29.938751 9,900 161 294 2816
2020-09-15 13:17:21 GMT 59.761902 29.933672 9,450 177 282 2880
2020-09-15 13:17:17 GMT 59.767998 29.933481 9,225 187 274 2880
2020-09-15 13:17:10 GMT 59.775238 29.935181 8,950 193 271 2944
2020-09-15 13:17:00 GMT 59.787003 29.941040 8,475 196 263 2880
2020-09-15 13:16:50 GMT 59.799088 29.947906 7,925 198 259 3520
2020-09-15 13:16:40 GMT 59.810257 29.956512 7,250 211 253 4160
2020-09-15 13:16:28 GMT 59.820602 29.974113 6,425 232 245 4096
2020-09-15 13:16:19 GMT 59.825119 29.990591 5,850 252 237 3968
2020-09-15 13:16:09 GMT 59.827168 30.013132 5,175 270 231 4032
2020-09-15 13:15:58 GMT 59.825817 30.034822 4,500 285 227 3328

Making use of Plane Finder data

You are free to use the raw flight data, aircraft information and images provided in this report for your own purposes provided the data is correctly attributed to Plane Finder. We ask that you please credit Plane Finder and link to planefinder.net in close proximity to the content.

Optionally one of the following logos (no smaller then 150x24px) can be used and must link to planefinder.net

Embedding the Plane Finder map

You are welcome to embed the Plane Finder playback map on your website to offer visitors a more interactive experience. We suggest using the following HTML code:

<iframe src="//planefinder.net/data/report/SU6597-VP-BIT-7700-squawk-2020-09-15/map" width="800" height="600" seamless="seamless"></iframe>

Where our data comes from

Plane Finder has a global network of data feeds and antenna radars that receive data broadcast directly from aircraft. The primary technologies used are ADS-B and MLAT. We also show feeds from the FAA and a FLARM glider feed.

Click here to find out more about the Plane Finder network.

How we collect our data